createdAt,value
2024-04-06T00:02:24.050Z,1.30
2024-04-06T00:07:30.737Z,2.30
2024-04-06T00:12:37.620Z,2.90
2024-04-06T00:17:44.361Z,2.80
2024-04-06T00:22:51.028Z,1.90
2024-04-06T00:27:57.765Z,2.40
2024-04-06T00:33:04.657Z,2.20
2024-04-06T00:38:11.392Z,2.20
2024-04-06T00:43:18.080Z,2.00
2024-04-06T00:48:24.884Z,2.80
2024-04-06T00:53:31.753Z,2.10
2024-04-06T00:58:42.930Z,2.50
2024-04-06T01:03:50.107Z,3.60
2024-04-06T01:08:56.939Z,3.20
2024-04-06T01:14:03.967Z,2.70
2024-04-06T01:19:10.676Z,3.60
2024-04-06T01:24:34.058Z,2.50
2024-04-06T01:29:42.366Z,1.60
2024-04-06T01:34:49.448Z,5.20
2024-04-06T01:39:56.188Z,2.00
2024-04-06T01:45:03.956Z,2.80
2024-04-06T01:50:11.756Z,5.00
2024-04-06T01:55:18.687Z,2.90
2024-04-06T02:00:28.447Z,3.30
2024-04-06T02:05:37.978Z,3.20
2024-04-06T02:10:45.112Z,5.60
2024-04-06T02:15:51.846Z,5.60
2024-04-06T02:20:58.847Z,5.40
2024-04-06T02:26:06.086Z,2.70
2024-04-06T02:31:12.877Z,6.30
2024-04-06T02:36:19.893Z,5.80
2024-04-06T02:41:26.742Z,2.90
2024-04-06T02:46:33.433Z,4.00
2024-04-06T02:51:40.398Z,3.30
2024-04-06T02:56:47.040Z,2.20
2024-04-06T03:01:53.904Z,5.40
2024-04-06T03:07:01.604Z,3.00
2024-04-06T03:12:13.861Z,3.30
2024-04-06T03:17:20.809Z,8.40
2024-04-06T03:22:27.544Z,3.80
2024-04-06T03:27:34.573Z,4.80
2024-04-06T03:32:41.487Z,4.70
2024-04-06T03:37:49.245Z,4.50
2024-04-06T03:43:00.356Z,4.40
2024-04-06T03:48:09.498Z,5.80
2024-04-06T03:53:30.409Z,3.50
2024-04-06T03:58:37.204Z,5.00
2024-04-06T04:03:43.907Z,4.20
2024-04-06T04:08:50.596Z,3.90
2024-04-06T04:14:00.573Z,7.50
2024-04-06T04:19:07.260Z,7.30
2024-04-06T04:24:13.929Z,3.90
2024-04-06T04:29:20.968Z,6.30
2024-04-06T04:34:27.822Z,5.80
2024-04-06T04:39:34.951Z,6.00
2024-04-06T04:44:46.364Z,7.30
2024-04-06T04:49:53.424Z,9.10
2024-04-06T04:55:00.638Z,8.20
2024-04-06T05:00:11.112Z,10.30
2024-04-06T05:05:18.015Z,11.40
2024-04-06T05:10:25.294Z,20.00
2024-04-06T05:15:31.984Z,19.70
2024-04-06T05:20:38.804Z,17.40
2024-04-06T05:25:45.790Z,14.10
2024-04-06T05:30:53.878Z,12.00
2024-04-06T05:36:02.785Z,13.50
2024-04-06T05:41:09.879Z,8.90
2024-04-06T05:46:17.331Z,8.30
2024-04-06T05:51:25.100Z,11.30
2024-04-06T05:56:31.980Z,18.00
2024-04-06T06:01:38.677Z,18.90
2024-04-06T06:06:45.369Z,14.80
2024-04-06T06:11:55.017Z,7.80
2024-04-06T06:17:01.843Z,7.90
2024-04-06T06:22:10.772Z,13.20
2024-04-06T06:27:18.162Z,10.30
2024-04-06T06:32:34.487Z,11.10
2024-04-06T06:42:51.419Z,12.20
2024-04-06T06:47:58.025Z,11.50
2024-04-06T06:53:04.953Z,17.40
2024-04-06T06:58:11.709Z,7.70
2024-04-06T07:03:19.119Z,8.30
2024-04-06T07:08:25.878Z,10.20
2024-04-06T07:13:34.186Z,5.80
2024-04-06T07:18:42.434Z,11.60
2024-04-06T07:23:49.210Z,5.70
2024-04-06T07:28:57.741Z,5.70
2024-04-06T07:34:04.516Z,6.50
2024-04-06T07:44:22.157Z,4.60
2024-04-06T07:49:30.190Z,8.20
2024-04-06T07:54:36.784Z,7.20
2024-04-06T07:59:43.358Z,6.80
2024-04-06T08:04:57.798Z,5.30
2024-04-06T08:10:36.848Z,5.10
2024-04-06T08:15:51.096Z,8.70
2024-04-06T08:20:58.178Z,6.30
2024-04-06T08:26:05.051Z,4.00
2024-04-06T08:31:11.944Z,7.30
2024-04-06T08:36:24.211Z,6.80
2024-04-06T08:41:32.602Z,3.10
2024-04-06T08:46:39.505Z,4.80
2024-04-06T08:51:51.519Z,3.90
2024-04-06T08:57:01.453Z,4.00
2024-04-06T09:02:08.342Z,4.90
2024-04-06T09:07:15.284Z,5.00
2024-04-06T09:12:22.610Z,5.90
2024-04-06T09:17:30.468Z,3.60
2024-04-06T09:22:37.534Z,3.90
2024-04-06T09:27:50.030Z,4.50
2024-04-06T09:32:59.536Z,4.70
2024-04-06T09:38:10.122Z,6.30
2024-04-06T09:43:17.299Z,2.30
2024-04-06T09:48:26.096Z,4.90
2024-04-06T09:53:33.163Z,3.00
2024-04-06T09:58:48.009Z,4.60
2024-04-06T10:03:54.869Z,3.90
2024-04-06T10:09:03.419Z,4.80
2024-04-06T10:14:10.435Z,3.10
2024-04-06T10:19:18.826Z,3.40
2024-04-06T10:24:29.891Z,3.40
2024-04-06T10:29:37.712Z,4.10
2024-04-06T10:39:52.552Z,3.90
2024-04-06T10:44:59.110Z,4.20
2024-04-06T10:50:09.268Z,5.70
2024-04-06T10:55:20.450Z,2.10
2024-04-06T11:00:28.476Z,3.90
2024-04-06T11:05:37.564Z,5.20
2024-04-06T11:10:44.182Z,4.60
2024-04-06T11:15:51.540Z,2.00
2024-04-06T11:20:58.138Z,4.90
2024-04-06T11:26:06.753Z,4.90
2024-04-06T11:31:14.182Z,5.10
2024-04-06T11:36:20.772Z,7.10
2024-04-06T11:41:27.319Z,4.00
2024-04-06T11:46:36.071Z,7.00
2024-04-06T11:51:45.303Z,3.90
2024-04-06T11:56:51.936Z,3.50
2024-04-06T12:01:59.742Z,2.20
2024-04-06T12:07:07.738Z,4.60
2024-04-06T12:12:14.860Z,2.10
2024-04-06T12:17:28.203Z,4.20
2024-04-06T12:22:34.759Z,1.70
2024-04-06T12:27:41.545Z,5.10
2024-04-06T12:32:48.243Z,4.50
2024-04-06T12:37:56.002Z,2.10
2024-04-06T12:43:02.562Z,4.80
2024-04-06T12:48:10.096Z,2.70
2024-04-06T12:53:17.349Z,2.60
2024-04-06T12:58:24.940Z,2.70
2024-04-06T13:03:31.845Z,2.90
2024-04-06T13:08:39.523Z,4.60
2024-04-06T13:13:46.186Z,2.70
2024-04-06T13:18:52.858Z,2.90
2024-04-06T13:23:59.513Z,1.80
2024-04-06T13:29:06.344Z,1.10
2024-04-06T13:34:12.923Z,2.20
2024-04-06T13:39:21.212Z,4.20
2024-04-06T13:49:33.320Z,3.10
2024-04-06T13:54:40.727Z,2.70
2024-04-06T13:59:47.552Z,3.40
2024-04-06T14:04:54.088Z,2.50
2024-04-06T14:10:00.904Z,2.50
2024-04-06T14:15:09.856Z,1.90
2024-04-06T14:20:16.893Z,2.50
2024-04-06T14:25:23.486Z,1.70
2024-04-06T14:30:33.782Z,2.90
2024-04-06T14:35:41.296Z,2.70
2024-04-06T14:40:47.816Z,2.50
2024-04-06T14:45:54.699Z,3.20
2024-04-06T14:51:01.590Z,4.30
2024-04-06T14:56:10.328Z,1.70
2024-04-06T15:01:18.941Z,2.70
2024-04-06T15:06:25.920Z,4.20
2024-04-06T15:11:38.159Z,2.70
2024-04-06T15:16:45.612Z,3.90
2024-04-06T15:21:53.193Z,1.90
2024-04-06T15:26:59.854Z,14.70
2024-04-06T15:32:07.752Z,3.40
2024-04-06T15:37:16.565Z,6.40
2024-04-06T15:42:24.534Z,3.40
2024-04-06T15:47:31.523Z,2.50
2024-04-06T15:52:38.155Z,6.00
2024-04-06T15:57:44.750Z,4.10
2024-04-06T16:02:51.337Z,17.20
2024-04-06T16:07:57.893Z,12.00
2024-04-06T16:13:04.627Z,7.60
2024-04-06T16:18:11.536Z,6.40
2024-04-06T16:23:18.164Z,5.60
2024-04-06T16:28:24.811Z,5.20
2024-04-06T16:33:32.354Z,6.80
2024-04-06T16:38:38.930Z,8.50
2024-04-06T16:43:47.239Z,7.00
2024-04-06T16:48:53.779Z,6.10
2024-04-06T16:54:00.280Z,5.90
2024-04-06T16:59:06.803Z,4.70
2024-04-06T17:04:13.384Z,3.90
2024-04-06T17:09:19.978Z,8.20
2024-04-06T17:14:27.327Z,11.00
2024-04-06T17:19:35.793Z,8.20
2024-04-06T17:24:44.119Z,11.70
2024-04-06T17:29:50.729Z,9.10
2024-04-06T17:34:57.608Z,8.70
2024-04-06T17:40:05.486Z,10.30
2024-04-06T17:45:12.905Z,11.20
2024-04-06T17:50:20.686Z,11.80
2024-04-06T17:55:27.763Z,10.40
2024-04-06T18:00:34.333Z,10.50
2024-04-06T18:05:41.633Z,10.60
2024-04-06T18:10:50.163Z,7.30
2024-04-06T18:16:02.432Z,6.90
2024-04-06T18:21:11.770Z,6.70
2024-04-06T18:26:18.690Z,11.80
2024-04-06T18:31:25.793Z,17.90
2024-04-06T18:36:33.573Z,11.20
2024-04-06T18:41:41.018Z,11.10
2024-04-06T18:46:47.753Z,10.00
2024-04-06T18:51:55.004Z,10.70
2024-04-06T18:57:04.775Z,13.40
2024-04-06T19:02:14.122Z,8.40
2024-04-06T19:07:24.558Z,10.00
2024-04-06T19:12:31.418Z,9.90
2024-04-06T19:17:41.871Z,12.00
2024-04-06T19:22:49.171Z,12.30
2024-04-06T19:27:56.513Z,16.00
2024-04-06T19:33:04.382Z,10.90
2024-04-06T19:38:11.617Z,14.60
2024-04-06T19:43:18.847Z,17.40
2024-04-06T19:48:25.781Z,11.70
2024-04-06T19:53:33.344Z,14.30
2024-04-06T19:58:41.334Z,12.60
2024-04-06T20:03:48.219Z,15.50
2024-04-06T20:09:08.230Z,15.40
2024-04-06T20:14:15.024Z,13.80
2024-04-06T20:19:22.260Z,15.60
2024-04-06T20:24:48.598Z,12.60
2024-04-06T20:29:55.555Z,15.90
2024-04-06T20:35:02.723Z,15.00
2024-04-06T20:40:13.844Z,16.90
2024-04-06T20:45:20.618Z,13.30
2024-04-06T20:50:27.927Z,15.40
2024-04-06T20:55:38.151Z,11.40
2024-04-06T21:00:47.720Z,18.20
2024-04-06T21:05:54.780Z,15.30
2024-04-06T21:11:03.716Z,16.30
2024-04-06T21:16:14.408Z,15.60
2024-04-06T21:21:21.232Z,18.50
2024-04-06T21:26:28.087Z,21.50
2024-04-06T21:31:35.506Z,14.70
2024-04-06T21:36:43.407Z,15.40
2024-04-06T21:41:50.457Z,19.70
2024-04-06T21:47:00.709Z,18.20
2024-04-06T21:52:08.474Z,18.00
2024-04-06T21:57:15.156Z,19.20
2024-04-06T22:02:22.287Z,16.90
2024-04-06T22:07:29.111Z,27.20
2024-04-06T22:12:36.661Z,23.80
2024-04-06T22:17:43.483Z,23.70
2024-04-06T22:22:50.495Z,19.70
2024-04-06T22:27:57.223Z,20.90
2024-04-06T22:33:04.192Z,23.60
2024-04-06T22:38:10.897Z,24.60
2024-04-06T22:43:17.514Z,24.00
2024-04-06T22:48:24.261Z,24.60
2024-04-06T22:53:31.072Z,23.90
2024-04-06T22:58:38.213Z,21.70
2024-04-06T23:03:44.903Z,23.90
2024-04-06T23:08:51.701Z,28.70
2024-04-06T23:13:58.978Z,21.40
2024-04-06T23:19:05.721Z,23.10
2024-04-06T23:24:12.687Z,22.20
2024-04-06T23:29:19.354Z,21.90
2024-04-06T23:34:26.121Z,25.30
2024-04-06T23:39:33.386Z,25.10
2024-04-06T23:44:40.117Z,26.10
2024-04-06T23:49:53.269Z,25.60
2024-04-06T23:55:02.978Z,28.10
